Terminal Aerodrome Forecast
Issued by NWS

Home | Current Version | Previous Version | Text Only | Print | Product List | Glossary On
Versions: 1 2 3 4 5 6 7 8 9 10 11 12 13 14 15 16 17 18 19 20 21 22 23 24 25 26 27
000
FTUS44 KFWD 042330
TAFAFW
TAF
KAFW 042330Z 0500/0524 15014KT P6SM SCT100 BKN250
     FM051000 15013KT P6SM BKN012
      TEMPO 0512/0514 OVC009
     FM051700 15015KT P6SM VCSH OVC025
     FM052100 16016KT P6SM VCTS BKN050CB=

USA.gov is the U.S. government's official web portal to all federal, state and local government web resources and services.